createdAt,value
2022-09-01T00:00:01.863Z,99226.59
2022-09-01T00:02:31.498Z,99219.25
2022-09-01T00:05:01.950Z,99223.16
2022-09-01T00:07:32.200Z,99217.81
2022-09-01T00:10:01.086Z,99224.84
2022-09-01T00:12:30.897Z,99227.13
2022-09-01T00:14:59.971Z,99216.75
2022-09-01T00:17:29.982Z,99221.38
2022-09-01T00:19:58.825Z,99220.66
2022-09-01T00:22:27.867Z,99222.09
2022-09-01T00:24:58.007Z,99229.84
2022-09-01T00:27:27.987Z,99220.50
2022-09-01T00:30:00.069Z,99224.72
2022-09-01T00:32:29.048Z,99225.28
2022-09-01T00:34:58.080Z,99222.41
2022-09-01T00:37:26.842Z,99226.22
2022-09-01T00:39:57.105Z,99219.69
2022-09-01T00:42:25.995Z,99218.56
2022-09-01T00:44:54.840Z,99213.16
2022-09-01T00:47:23.594Z,99213.47
2022-09-01T00:49:53.034Z,99210.19
2022-09-01T00:52:24.313Z,99213.03
2022-09-01T00:54:58.196Z,99208.84
2022-09-01T00:57:27.493Z,99216.75
2022-09-01T00:59:58.711Z,99208.19
2022-09-01T01:02:28.071Z,99204.97
2022-09-01T01:05:00.634Z,99208.72
2022-09-01T01:07:29.747Z,99201.69
2022-09-01T01:09:59.985Z,99205.22
2022-09-01T01:12:30.826Z,99205.13
2022-09-01T01:14:59.939Z,99217.72
2022-09-01T01:17:28.703Z,99225.50
2022-09-01T01:20:16.054Z,99214.84
2022-09-01T01:23:03.715Z,99209.09
2022-09-01T01:25:37.347Z,99218.63
2022-09-01T01:28:13.064Z,99207.53
2022-09-01T01:30:44.451Z,99218.63
2022-09-01T01:33:13.238Z,99219.88
2022-09-01T01:35:42.390Z,99210.44
2022-09-01T01:38:11.219Z,99217.97
2022-09-01T01:40:41.818Z,99210.84
2022-09-01T01:43:11.530Z,99220.59
2022-09-01T01:45:40.375Z,99215.22
2022-09-01T01:48:10.709Z,99209.41
2022-09-01T01:50:41.040Z,99216.28
2022-09-01T01:53:12.082Z,99207.00
2022-09-01T01:55:43.703Z,99227.38
2022-09-01T01:58:15.004Z,99225.22
2022-09-01T02:00:47.494Z,99224.50
2022-09-01T02:03:19.116Z,99231.03
2022-09-01T02:05:49.025Z,99224.41
2022-09-01T02:08:22.863Z,99237.59
2022-09-01T02:10:54.960Z,99214.56
2022-09-01T02:13:26.667Z,99229.53
2022-09-01T02:15:57.178Z,99230.94
2022-09-01T02:18:27.935Z,99223.97
2022-09-01T02:20:58.814Z,99222.63
2022-09-01T02:23:28.108Z,99220.00
2022-09-01T02:26:17.534Z,99221.50
2022-09-01T02:28:55.737Z,99223.88
2022-09-01T02:31:25.133Z,99223.88
2022-09-01T02:33:54.700Z,99223.06
2022-09-01T02:36:25.179Z,99216.53
2022-09-01T02:38:56.534Z,99218.28
2022-09-01T02:41:34.714Z,99208.78
2022-09-01T02:44:05.749Z,99214.72
2022-09-01T02:46:34.567Z,99217.34
2022-09-01T02:49:04.505Z,99215.28
2022-09-01T02:51:33.354Z,99212.91
2022-09-01T02:54:02.115Z,99203.53
2022-09-01T02:56:32.538Z,99214.72
2022-09-01T02:59:03.137Z,99204.78
2022-09-01T03:01:33.854Z,99211.41
2022-09-01T03:04:09.746Z,99204.22
2022-09-01T03:06:39.242Z,99200.56
2022-09-01T03:09:11.777Z,99203.31
2022-09-01T03:11:43.840Z,99202.63
2022-09-01T03:14:13.537Z,99200.13
2022-09-01T03:16:42.497Z,99202.06
2022-09-01T03:19:12.122Z,99200.13
2022-09-01T03:21:44.749Z,99200.56
2022-09-01T03:24:16.833Z,99205.53
2022-09-01T03:26:50.226Z,99204.72
2022-09-01T03:29:19.374Z,99204.16
2022-09-01T03:31:48.558Z,99203.69
2022-09-01T03:34:20.700Z,99210.19
2022-09-01T03:36:51.176Z,99219.00
2022-09-01T03:39:20.465Z,99207.44
2022-09-01T03:41:50.575Z,99214.22
2022-09-01T03:44:19.287Z,99216.47
2022-09-01T03:46:48.037Z,99218.56
2022-09-01T03:49:24.898Z,99213.97
2022-09-01T03:51:54.084Z,99210.97
2022-09-01T03:54:30.403Z,99203.78
2022-09-01T03:57:00.713Z,99213.31
2022-09-01T03:59:30.327Z,99210.00
2022-09-01T04:02:00.202Z,99212.03
2022-09-01T04:04:31.482Z,99206.47
2022-09-01T04:07:01.196Z,99207.69
2022-09-01T04:09:29.900Z,99213.75
2022-09-01T04:12:00.022Z,99210.00
2022-09-01T04:14:29.281Z,99219.38
2022-09-01T04:17:17.059Z,99216.50
2022-09-01T04:19:46.075Z,99216.97
2022-09-01T04:22:15.594Z,99220.28
2022-09-01T04:24:45.999Z,99214.00
2022-09-01T04:27:18.513Z,99201.53
2022-09-01T04:29:48.491Z,99215.03
2022-09-01T04:32:17.329Z,99204.28
2022-09-01T04:34:46.077Z,99215.50
2022-09-01T04:37:18.177Z,99216.19
2022-09-01T04:39:55.656Z,99207.59
2022-09-01T04:42:29.240Z,99222.56
2022-09-01T04:44:59.918Z,99208.84
2022-09-01T04:47:36.253Z,99199.13
2022-09-01T04:50:13.878Z,99207.81
2022-09-01T04:52:43.420Z,99200.28
2022-09-01T04:55:17.532Z,99210.19
2022-09-01T04:57:49.469Z,99219.66
2022-09-01T05:00:23.402Z,99216.38
2022-09-01T05:02:53.445Z,99216.13
2022-09-01T05:05:23.025Z,99212.31
2022-09-01T05:07:55.460Z,99213.13
2022-09-01T05:10:29.832Z,99215.06
2022-09-01T05:13:00.201Z,99216.00
2022-09-01T05:15:30.945Z,99211.75
2022-09-01T05:18:02.700Z,99209.69
2022-09-01T05:20:32.100Z,99214.72
2022-09-01T05:23:01.818Z,99210.00
2022-09-01T05:25:30.838Z,99208.16
2022-09-01T05:28:02.790Z,99216.75
2022-09-01T05:30:31.717Z,99211.38
2022-09-01T05:33:00.419Z,99218.69
2022-09-01T05:35:32.587Z,99212.59
2022-09-01T05:38:02.725Z,99220.13
2022-09-01T05:40:34.019Z,99214.13
2022-09-01T05:43:04.444Z,99216.88
2022-09-01T05:45:56.328Z,99215.03
2022-09-01T05:48:26.678Z,99208.00
2022-09-01T05:50:59.795Z,99211.88
2022-09-01T05:53:31.059Z,99206.38
2022-09-01T05:56:00.005Z,99215.88
2022-09-01T05:59:22.333Z,99213.66
2022-09-01T06:01:22.320Z,99209.56
2022-09-01T06:03:53.149Z,99221.78
2022-09-01T06:06:22.966Z,99213.16
2022-09-01T06:08:51.976Z,99215.06
2022-09-01T06:11:21.791Z,99204.06
2022-09-01T06:13:55.262Z,99211.06
2022-09-01T06:16:25.473Z,99208.88
2022-09-01T06:18:57.461Z,99209.03
2022-09-01T06:21:28.967Z,99193.84
2022-09-01T06:23:59.255Z,99213.22
2022-09-01T06:26:30.050Z,99207.75
2022-09-01T06:29:03.487Z,99211.19
2022-09-01T06:31:35.129Z,99210.06
2022-09-01T06:34:05.378Z,99214.59
2022-09-01T06:36:36.660Z,99206.31
2022-09-01T06:39:05.679Z,99208.38
2022-09-01T06:41:36.256Z,99207.88
2022-09-01T06:44:09.900Z,99205.53
2022-09-01T06:46:41.255Z,99213.53
2022-09-01T06:49:11.622Z,99215.84
2022-09-01T06:51:40.929Z,99213.59
2022-09-01T06:54:14.856Z,99207.03
2022-09-01T06:56:44.922Z,99199.81
2022-09-01T06:59:22.337Z,99221.38
2022-09-01T07:02:01.466Z,99212.44
2022-09-01T07:04:32.226Z,99216.34
2022-09-01T07:07:54.070Z,99212.22
2022-09-01T07:10:06.084Z,99210.47
2022-09-01T07:13:04.800Z,99213.50
2022-09-01T07:16:31.860Z,99209.03
2022-09-01T07:18:25.188Z,99213.91
2022-09-01T07:21:05.487Z,99223.88
2022-09-01T07:23:47.376Z,99222.88
2022-09-01T07:26:29.054Z,99225.44
2022-09-01T07:29:01.821Z,99227.94
2022-09-01T07:34:41.930Z,99228.03
2022-09-01T07:42:31.641Z,99232.00
2022-09-01T07:43:12.853Z,99234.91
2022-09-01T07:45:47.685Z,99234.00
2022-09-01T07:53:58.828Z,99250.06
2022-09-01T07:56:27.614Z,99248.28
2022-09-01T07:58:57.241Z,99248.88
2022-09-01T08:01:27.530Z,99246.72
2022-09-01T08:04:02.046Z,99251.78
2022-09-01T08:06:39.320Z,99258.72
2022-09-01T08:09:11.594Z,99248.44
2022-09-01T08:12:01.137Z,99247.44
2022-09-01T08:14:33.716Z,99255.91
2022-09-01T08:17:34.355Z,99249.84
2022-09-01T08:19:54.415Z,99255.50
2022-09-01T08:22:25.199Z,99246.78
2022-09-01T08:24:54.930Z,99252.34
2022-09-01T08:27:23.926Z,99246.09
2022-09-01T08:29:52.733Z,99253.53
2022-09-01T08:32:22.018Z,99254.59
2022-09-01T08:34:50.957Z,99253.59
2022-09-01T08:37:22.215Z,99248.63
2022-09-01T08:39:52.869Z,99235.97
2022-09-01T08:42:32.956Z,99250.59
2022-09-01T08:45:05.661Z,99255.94
2022-09-01T08:47:50.453Z,99255.69
2022-09-01T08:50:23.908Z,99255.72
2022-09-01T08:53:09.046Z,99256.84
2022-09-01T08:55:42.164Z,99261.84
2022-09-01T08:58:12.111Z,99266.41
2022-09-01T09:00:46.670Z,99264.81
2022-09-01T09:03:22.113Z,99269.88
2022-09-01T09:06:04.062Z,99266.44
2022-09-01T09:08:56.921Z,99265.66
2022-09-01T09:11:38.801Z,99270.97
2022-09-01T09:14:12.517Z,99273.91
2022-09-01T09:16:43.090Z,99263.28
2022-09-01T09:19:17.175Z,99269.38
2022-09-01T09:21:48.217Z,99265.16
2022-09-01T09:24:22.861Z,99264.63
2022-09-01T09:26:52.193Z,99259.84
2022-09-01T09:29:22.021Z,99258.25
2022-09-01T09:32:03.983Z,99256.41
2022-09-01T09:34:35.782Z,99265.13
2022-09-01T09:37:28.219Z,99271.78
2022-09-01T09:40:15.118Z,99251.81
2022-09-01T09:43:02.089Z,99256.59
2022-09-01T09:45:34.634Z,99257.09
2022-09-01T09:48:10.793Z,99262.63
2022-09-01T09:50:41.910Z,99254.66
2022-09-01T09:53:17.481Z,99254.94
2022-09-01T09:56:00.240Z,99248.06
2022-09-01T09:58:36.045Z,99248.81
2022-09-01T10:01:09.338Z,99248.25
2022-09-01T10:03:44.347Z,99244.75
2022-09-01T10:06:15.373Z,99246.09
2022-09-01T10:08:48.541Z,99247.41
2022-09-01T10:11:35.430Z,99249.25
2022-09-01T10:14:07.769Z,99240.16
2022-09-01T10:16:39.096Z,99249.88
2022-09-01T10:19:13.045Z,99241.34
2022-09-01T10:21:46.348Z,99240.50
2022-09-01T10:24:21.389Z,99247.72
2022-09-01T10:26:54.968Z,99241.56
2022-09-01T10:29:26.979Z,99238.69
2022-09-01T10:32:28.078Z,99241.31
2022-09-01T10:34:46.675Z,99238.06
2022-09-01T10:37:15.978Z,99229.94
2022-09-01T10:40:20.556Z,99235.47
2022-09-01T10:42:55.124Z,99233.19
2022-09-01T10:45:35.257Z,99232.63
2022-09-01T10:48:32.138Z,99234.41
2022-09-01T10:51:38.458Z,99232.44
2022-09-01T10:54:09.362Z,99237.72
2022-09-01T10:56:44.409Z,99222.03
2022-09-01T10:59:40.260Z,99224.00
2022-09-01T11:02:25.816Z,99231.38
2022-09-01T11:05:13.816Z,99230.63
2022-09-01T11:08:01.522Z,99220.75
2022-09-01T11:10:47.601Z,99224.16
2022-09-01T11:13:37.518Z,99213.09
2022-09-01T11:16:50.119Z,99211.47
2022-09-01T11:19:31.694Z,99213.56
2022-09-01T11:22:09.450Z,99203.13
2022-09-01T11:24:58.002Z,99201.84
2022-09-01T11:28:01.670Z,99210.56
2022-09-01T11:30:52.889Z,99216.91
2022-09-01T11:33:44.197Z,99207.41
2022-09-01T11:36:23.526Z,99204.44
2022-09-01T11:38:57.733Z,99201.63
2022-09-01T11:41:31.225Z,99195.88
2022-09-01T11:44:01.301Z,99188.75
2022-09-01T11:46:34.297Z,99188.16
2022-09-01T11:49:08.755Z,99185.78
2022-09-01T11:51:43.882Z,99182.91
2022-09-01T11:54:12.932Z,99173.84
2022-09-01T11:56:41.815Z,99176.72
2022-09-01T11:59:10.837Z,99177.06
2022-09-01T12:01:41.068Z,99173.31
2022-09-01T12:04:23.349Z,99166.72
2022-09-01T12:06:54.468Z,99175.78
2022-09-01T12:09:23.733Z,99173.81
2022-09-01T12:11:52.804Z,99173.53
2022-09-01T12:14:23.419Z,99172.72
2022-09-01T12:17:00.255Z,99179.09
2022-09-01T12:19:33.016Z,99180.94
2022-09-01T12:22:05.339Z,99178.19
2022-09-01T12:24:37.025Z,99174.09
2022-09-01T12:27:05.926Z,99170.09
2022-09-01T12:29:34.826Z,99174.47
2022-09-01T12:32:04.228Z,99154.94
2022-09-01T12:34:43.178Z,99163.94
2022-09-01T12:37:21.995Z,99154.94
2022-09-01T12:39:52.341Z,99161.38
2022-09-01T12:42:28.392Z,99164.84
2022-09-01T12:44:59.372Z,99163.44
2022-09-01T12:47:50.361Z,99159.75
2022-09-01T12:50:43.653Z,99152.72
2022-09-01T12:53:30.552Z,99159.94
2022-09-01T12:56:16.965Z,99160.97
2022-09-01T12:58:49.449Z,99153.88
2022-09-01T13:01:33.576Z,99149.81
2022-09-01T13:04:13.504Z,99158.56
2022-09-01T13:06:44.547Z,99146.09
2022-09-01T13:09:13.427Z,99155.63
2022-09-01T13:14:31.765Z,99166.09
2022-09-01T13:17:01.676Z,99159.47
2022-09-01T13:19:30.776Z,99154.94
2022-09-01T13:22:02.027Z,99158.56
2022-09-01T13:24:31.911Z,99148.38
2022-09-01T13:29:50.285Z,99142.25
2022-09-01T13:32:21.395Z,99147.66
2022-09-01T13:34:52.248Z,99149.44
2022-09-01T13:37:23.315Z,99138.75
2022-09-01T13:39:52.491Z,99144.19
2022-09-01T13:42:21.941Z,99131.94
2022-09-01T13:44:54.083Z,99128.66
2022-09-01T13:47:29.170Z,99122.84
2022-09-01T13:50:08.287Z,99127.19
2022-09-01T13:52:41.847Z,99126.72
2022-09-01T13:55:12.821Z,99131.28
2022-09-01T13:57:41.753Z,99132.25
2022-09-01T14:00:12.881Z,99130.47
2022-09-01T14:02:42.954Z,99127.38
2022-09-01T14:05:12.253Z,99124.75
2022-09-01T14:07:42.582Z,99114.63
2022-09-01T14:10:11.869Z,99115.63
2022-09-01T14:12:41.602Z,99117.91
2022-09-01T14:15:15.577Z,99112.38
2022-09-01T14:17:47.242Z,99108.50
2022-09-01T14:20:18.445Z,99116.63
2022-09-01T14:22:49.219Z,99116.00
2022-09-01T14:25:20.284Z,99110.66
2022-09-01T14:27:49.668Z,99099.59
2022-09-01T14:30:20.406Z,99102.88
2022-09-01T14:32:50.422Z,99101.09
2022-09-01T14:35:20.324Z,99103.97
2022-09-01T14:37:50.437Z,99098.81
2022-09-01T14:40:22.565Z,99097.72
2022-09-01T14:42:53.187Z,99089.22
2022-09-01T14:45:23.786Z,99085.97
2022-09-01T14:47:55.886Z,99092.06
2022-09-01T14:50:25.261Z,99081.63
2022-09-01T14:52:57.424Z,99075.47
2022-09-01T14:55:29.259Z,99067.63
2022-09-01T14:57:58.480Z,99082.78
2022-09-01T15:00:28.136Z,99082.69
2022-09-01T15:02:57.310Z,99082.81
2022-09-01T15:05:26.475Z,99078.06
2022-09-01T15:07:56.683Z,99079.63
2022-09-01T15:10:27.728Z,99078.19
2022-09-01T15:12:59.335Z,99068.50
2022-09-01T15:15:29.096Z,99065.16
2022-09-01T15:17:58.439Z,99071.06
2022-09-01T15:20:44.902Z,99072.47
2022-09-01T15:23:16.566Z,99070.25
2022-09-01T15:25:45.784Z,99065.63
2022-09-01T15:28:15.512Z,99069.25
2022-09-01T15:30:45.547Z,99075.94
2022-09-01T15:33:16.403Z,99068.19
2022-09-01T15:35:46.128Z,99067.00
2022-09-01T15:38:17.730Z,99066.09
2022-09-01T15:40:55.448Z,99066.81
2022-09-01T15:43:28.571Z,99067.03
2022-09-01T15:45:59.141Z,99060.91
2022-09-01T15:48:29.109Z,99055.56
2022-09-01T15:51:09.906Z,99063.97
2022-09-01T15:53:40.105Z,99067.25
2022-09-01T15:56:08.790Z,99064.28
2022-09-01T15:58:57.543Z,99059.44
2022-09-01T16:01:26.749Z,99060.69
2022-09-01T16:03:56.121Z,99059.00
2022-09-01T16:06:28.916Z,99053.66
2022-09-01T16:08:59.208Z,99050.00
2022-09-01T16:11:28.473Z,99051.47
2022-09-01T16:13:58.246Z,99050.41
2022-09-01T16:16:40.081Z,99052.50
2022-09-01T16:19:19.143Z,99049.09
2022-09-01T16:21:52.948Z,99050.78
2022-09-01T16:24:23.392Z,99051.19
2022-09-01T16:26:52.967Z,99038.03
2022-09-01T16:29:28.300Z,99042.66
2022-09-01T16:31:57.433Z,99044.00
2022-09-01T16:34:28.473Z,99041.94
2022-09-01T16:37:03.270Z,99040.03
2022-09-01T16:39:36.504Z,99039.63
2022-09-01T16:42:16.806Z,99033.97
2022-09-01T16:44:53.549Z,99035.63
2022-09-01T16:47:34.425Z,99045.50
2022-09-01T16:50:10.874Z,99038.16
2022-09-01T16:52:53.660Z,99037.44
2022-09-01T16:55:28.893Z,99037.28
2022-09-01T16:58:01.914Z,99020.88
2022-09-01T17:00:37.085Z,99022.91
2022-09-01T17:03:09.396Z,99026.06
2022-09-01T17:05:51.391Z,99032.31
2022-09-01T17:08:22.736Z,99020.16
2022-09-01T17:10:56.267Z,99031.34
2022-09-01T17:13:30.126Z,99022.97
2022-09-01T17:16:04.005Z,99031.69
2022-09-01T17:18:35.817Z,99022.97
2022-09-01T17:21:11.154Z,99030.31
2022-09-01T17:23:43.111Z,99025.69
2022-09-01T17:26:18.387Z,99027.19
2022-09-01T17:28:55.186Z,99035.16
2022-09-01T17:31:42.774Z,99039.75
2022-09-01T17:34:22.163Z,99031.38
2022-09-01T17:36:56.866Z,99034.41
2022-09-01T17:39:36.947Z,99045.84
2022-09-01T17:42:11.433Z,99047.50
2022-09-01T17:44:45.422Z,99052.28
2022-09-01T17:47:21.581Z,99052.94
2022-09-01T17:49:55.295Z,99056.13
2022-09-01T17:52:34.265Z,99053.28
2022-09-01T17:55:10.057Z,99059.75
2022-09-01T17:57:44.205Z,99054.16
2022-09-01T18:00:23.661Z,99057.22
2022-09-01T18:03:09.322Z,99057.31
2022-09-01T18:05:41.596Z,99062.44
2022-09-01T18:08:20.708Z,99069.41
2022-09-01T18:10:53.916Z,99069.19
2022-09-01T18:13:51.412Z,99076.94
2022-09-01T18:16:18.424Z,99077.75
2022-09-01T18:18:49.141Z,99072.81
2022-09-01T18:21:20.328Z,99085.28
2022-09-01T18:23:51.526Z,99084.00
2022-09-01T18:26:27.312Z,99083.78
2022-09-01T18:28:58.258Z,99087.22
2022-09-01T18:32:10.536Z,99100.28
2022-09-01T18:34:48.462Z,99092.34
2022-09-01T18:37:20.905Z,99096.88
2022-09-01T18:39:54.877Z,99103.22
2022-09-01T18:42:27.453Z,99087.34
2022-09-01T18:45:06.049Z,99100.06
2022-09-01T18:47:36.920Z,99103.25
2022-09-01T18:50:11.803Z,99100.09
2022-09-01T18:53:05.343Z,99084.72
2022-09-01T18:55:40.413Z,99097.47
2022-09-01T18:58:12.464Z,99096.16
2022-09-01T19:00:47.794Z,99090.59
2022-09-01T19:03:27.188Z,99091.66
2022-09-01T19:06:23.469Z,99102.84
2022-09-01T19:09:01.643Z,99097.53
2022-09-01T19:11:39.876Z,99096.72
2022-09-01T19:14:15.853Z,99091.69
2022-09-01T19:16:58.871Z,99105.47
2022-09-01T19:19:37.584Z,99098.31
2022-09-01T19:22:06.886Z,99096.69
2022-09-01T19:24:39.757Z,99101.19
2022-09-01T19:27:11.797Z,99104.13
2022-09-01T19:29:47.038Z,99109.16
2022-09-01T19:32:19.922Z,99112.84
2022-09-01T19:34:52.317Z,99111.00
2022-09-01T19:37:21.813Z,99104.38
2022-09-01T19:39:54.198Z,99100.13
2022-09-01T19:42:28.331Z,99105.13
2022-09-01T19:45:05.174Z,99115.75
2022-09-01T19:47:43.272Z,99095.06
2022-09-01T19:50:17.850Z,99106.19
2022-09-01T19:52:52.719Z,99110.41
2022-09-01T19:55:30.975Z,99112.81
2022-09-01T19:58:03.419Z,99106.97
2022-09-01T20:00:50.743Z,99106.97
2022-09-01T20:03:23.776Z,99112.22
2022-09-01T20:05:56.120Z,99108.78
2022-09-01T20:08:29.121Z,99103.44
2022-09-01T20:11:02.193Z,99109.25
2022-09-01T20:13:57.468Z,99109.97
2022-09-01T20:16:30.921Z,99109.16
2022-09-01T20:19:05.230Z,99112.59
2022-09-01T20:21:39.969Z,99110.19
2022-09-01T20:24:13.058Z,99106.47
2022-09-01T20:26:46.130Z,99104.59
2022-09-01T20:29:20.274Z,99106.44
2022-09-01T20:31:55.406Z,99108.56
2022-09-01T20:34:30.142Z,99105.09
2022-09-01T20:37:03.443Z,99107.75
2022-09-01T20:39:57.416Z,99099.75
2022-09-01T20:42:35.307Z,99100.53
2022-09-01T20:45:09.147Z,99106.88
2022-09-01T20:47:37.959Z,99096.00
2022-09-01T20:50:11.950Z,99098.88
2022-09-01T20:52:49.424Z,99103.91
2022-09-01T20:55:22.175Z,99097.03
2022-09-01T20:57:55.848Z,99097.22
2022-09-01T21:00:26.837Z,99099.59
2022-09-01T21:03:02.154Z,99091.94
2022-09-01T21:05:41.689Z,99094.84
2022-09-01T21:08:20.178Z,99100.63
2022-09-01T21:10:53.326Z,99100.53
2022-09-01T21:13:35.528Z,99095.25
2022-09-01T21:16:08.660Z,99095.75
2022-09-01T21:18:46.687Z,99088.88
2022-09-01T21:21:26.879Z,99093.06
2022-09-01T21:23:55.604Z,99089.69
2022-09-01T21:26:24.582Z,99093.63
2022-09-01T21:28:56.304Z,99087.47
2022-09-01T21:31:25.410Z,99093.59
2022-09-01T21:33:54.153Z,99096.22
2022-09-01T21:36:24.274Z,99095.13
2022-09-01T21:38:53.068Z,99100.41
2022-09-01T21:41:21.837Z,99095.63
2022-09-01T21:43:50.859Z,99093.25
2022-09-01T21:46:20.628Z,99086.56
2022-09-01T21:48:49.423Z,99092.38
2022-09-01T21:51:20.301Z,99098.19
2022-09-01T21:53:50.816Z,99099.22
2022-09-01T21:56:19.916Z,99076.31
2022-09-01T21:58:55.688Z,99061.81
2022-09-01T22:01:26.860Z,99063.94
2022-09-01T22:03:55.607Z,99085.13
2022-09-01T22:06:24.491Z,99082.75
2022-09-01T22:08:55.232Z,99070.75
2022-09-01T22:11:24.185Z,99057.16
2022-09-01T22:13:53.460Z,99086.88
2022-09-01T22:16:23.670Z,99053.94
2022-09-01T22:18:52.591Z,99082.41
2022-09-01T22:21:24.573Z,99080.41
2022-09-01T22:23:55.258Z,99068.75
2022-09-01T22:26:28.909Z,99072.94
2022-09-01T22:28:59.658Z,99081.44
2022-09-01T22:31:32.768Z,99088.25
2022-09-01T22:34:02.608Z,99080.06
2022-09-01T22:36:33.485Z,99071.38
2022-09-01T22:39:04.091Z,99073.38
2022-09-01T22:41:33.801Z,99087.13
2022-09-01T22:44:03.745Z,99085.00
2022-09-01T22:46:33.729Z,99075.06
2022-09-01T22:49:04.047Z,99059.63
2022-09-01T22:51:33.834Z,99084.84
2022-09-01T22:54:04.528Z,99077.84
2022-09-01T22:56:36.135Z,99087.38
2022-09-01T22:59:09.603Z,99076.63
2022-09-01T23:01:42.074Z,99070.53
2022-09-01T23:04:13.147Z,99064.22
2022-09-01T23:06:44.900Z,99061.78
2022-09-01T23:09:17.894Z,99073.91
2022-09-01T23:11:47.160Z,99076.06
2022-09-01T23:14:18.655Z,99053.66
2022-09-01T23:16:51.517Z,99068.16
2022-09-01T23:19:22.860Z,99086.56
2022-09-01T23:21:52.594Z,99065.31
2022-09-01T23:24:23.200Z,99080.72
2022-09-01T23:26:52.302Z,99062.97
2022-09-01T23:29:21.362Z,99072.47
2022-09-01T23:31:50.255Z,99082.78
2022-09-01T23:34:19.174Z,99049.78
2022-09-01T23:36:48.319Z,99024.25
2022-09-01T23:39:19.205Z,99077.31
2022-09-01T23:41:49.448Z,99069.31
2022-09-01T23:44:18.258Z,99066.22
2022-09-01T23:46:47.755Z,99075.16
2022-09-01T23:49:18.356Z,99046.94
2022-09-01T23:51:48.242Z,99071.28
2022-09-01T23:54:17.267Z,99062.88
2022-09-01T23:56:47.048Z,99064.31
2022-09-01T23:59:17.271Z,99068.56
